Time;durP1;ratioP1;P1;durP2;ratioP2;P2;SDS_P1;SDS_P2;PMS_P1;PMS_P2;Temp;Humidity;BMP_temperature;BMP_pressure;BME280_temperature;BME280_humidity;BME280_pressure;Samples;Min_cycle;Max_cycle;Signal;HPM_P1;HPM_P2
2023/09/22 00:00:33;;;;;;;2.65;1.10;;;;;;;17.86;82.71;96832.09;5050801;28;20069;-72
2023/09/22 00:02:58;;;;;;;2.97;0.90;;;;;;;17.99;82.85;96851.28;5031554;28;20120;-72
2023/09/22 00:05:23;;;;;;;2.05;1.00;;;;;;;18.01;82.68;96840.88;5049278;28;20067;-72
2023/09/22 00:07:49;;;;;;;3.55;1.20;;;;;;;18.00;82.85;96836.53;5052680;28;20039;-71
2023/09/22 00:10:14;;;;;;;1.45;0.90;;;;;;;17.99;82.70;96824.84;5048130;28;20033;-73
2023/09/22 00:12:40;;;;;;;1.95;1.10;;;;;;;18.11;82.59;96843.25;5042590;28;20079;-71
2023/09/22 00:15:06;;;;;;;1.05;0.73;;;;;;;17.94;82.62;96831.28;5047518;28;20041;-70
2023/09/22 00:17:37;;;;;;;1.52;0.90;;;;;;;18.07;82.63;96847.72;5044022;28;20070;-70
2023/09/22 00:20:03;;;;;;;1.58;0.98;;;;;;;18.04;82.38;96870.97;5051286;28;20451;-71
2023/09/22 00:22:29;;;;;;;1.77;1.10;;;;;;;17.88;83.48;96878.88;5047336;28;20025;-71
2023/09/22 00:24:55;;;;;;;2.13;1.10;;;;;;;17.84;83.29;96874.38;5033823;28;20037;-71
2023/09/22 00:27:21;;;;;;;2.25;1.10;;;;;;;17.75;83.71;96866.25;5047837;28;20025;-72
2023/09/22 00:29:46;;;;;;;1.20;1.10;;;;;;;17.79;83.69;96875.38;5030959;28;20040;-72
2023/09/22 00:32:12;;;;;;;1.58;1.00;;;;;;;17.72;83.54;96885.94;5044090;28;20017;-72
2023/09/22 00:34:38;;;;;;;3.00;1.23;;;;;;;17.78;83.48;96890.09;5030456;28;20116;-72
2023/09/22 00:37:03;;;;;;;1.27;1.17;;;;;;;17.73;83.84;96897.63;5030905;28;20028;-72
2023/09/22 00:39:29;;;;;;;2.30;1.30;;;;;;;17.71;83.85;96900.66;5050448;28;20028;-71
2023/09/22 00:41:54;;;;;;;2.35;1.10;;;;;;;17.62;83.69;96880.81;5030775;28;20398;-71
2023/09/22 00:44:20;;;;;;;1.58;1.10;;;;;;;17.66;84.02;96876.34;5031965;28;20072;-70
2023/09/22 00:46:45;;;;;;;2.20;1.08;;;;;;;17.70;84.01;96877.28;5050593;28;20075;-72
2023/09/22 00:49:12;;;;;;;1.67;1.02;;;;;;;17.72;84.53;96885.94;5050388;28;20052;-72
2023/09/22 00:51:37;;;;;;;1.35;1.20;;;;;;;17.69;84.32;96886.56;5047357;28;20443;-72
2023/09/22 00:54:03;;;;;;;3.35;1.10;;;;;;;17.69;84.96;96888.53;5052327;28;20033;-72
2023/09/22 00:56:28;;;;;;;3.55;1.38;;;;;;;17.66;85.02;96897.31;5038294;28;20440;-71
2023/09/22 00:58:54;;;;;;;1.77;1.20;;;;;;;17.63;85.13;96898.75;5047912;28;20086;-71
2023/09/22 01:01:20;;;;;;;2.25;1.30;;;;;;;17.68;85.50;96895.88;5050388;28;20396;-70
2023/09/22 01:03:48;;;;;;;2.70;1.42;;;;;;;17.56;85.87;96887.56;5046414;28;20030;-70
2023/09/22 01:06:14;;;;;;;2.60;1.63;;;;;;;17.53;85.84;96877.31;5041567;28;20021;-71
2023/09/22 01:08:40;;;;;;;3.72;1.30;;;;;;;17.63;85.38;96887.88;5050123;28;20044;-71
2023/09/22 01:11:05;;;;;;;2.80;1.55;;;;;;;17.54;85.51;96868.03;5041540;28;20049;-71
2023/09/22 01:13:31;;;;;;;2.33;1.30;;;;;;;17.52;85.92;96870.28;5029716;28;20122;-71
2023/09/22 01:15:56;;;;;;;4.05;1.45;;;;;;;17.62;85.69;96891.72;5042568;28;20495;-70
2023/09/22 01:18:22;;;;;;;3.25;1.60;;;;;;;17.53;85.98;96865.59;5033523;28;20492;-69
2023/09/22 01:20:47;;;;;;;1.90;1.33;;;;;;;17.49;85.96;96859.19;5046860;28;20032;-69
2023/09/22 01:23:13;;;;;;;3.72;1.60;;;;;;;17.54;85.92;96856.31;5043275;28;20040;-68
2023/09/22 01:25:42;;;;;;;3.53;1.40;;;;;;;17.48;86.10;96858.38;5037630;28;20555;-69
2023/09/22 01:28:08;;;;;;;1.98;1.33;;;;;;;17.44;86.33;96854.69;5034564;28;20032;-69
2023/09/22 01:30:34;;;;;;;3.10;1.58;;;;;;;17.45;86.20;96863.66;5030136;28;20496;-68
2023/09/22 01:33:02;;;;;;;2.95;1.63;;;;;;;17.45;85.98;96861.75;5046777;28;20029;-68
2023/09/22 01:35:29;;;;;;;2.80;1.50;;;;;;;17.38;86.59;96875.03;5051118;28;20119;-68
2023/09/22 01:37:57;;;;;;;3.90;1.52;;;;;;;17.34;86.58;96862.41;5030012;28;20033;-70
2023/09/22 01:40:23;;;;;;;1.90;1.40;;;;;;;17.37;85.99;96870.72;5038680;28;20481;-70
2023/09/22 01:42:48;;;;;;;2.35;1.30;;;;;;;17.26;86.16;96867.53;5014755;28;20048;-71
2023/09/22 01:45:14;;;;;;;1.88;1.23;;;;;;;17.29;86.73;96882.41;5037948;28;20022;-70
2023/09/22 01:47:42;;;;;;;3.25;1.10;;;;;;;17.35;86.74;96885.75;5029884;28;20140;-72
2023/09/22 01:50:08;;;;;;;2.80;1.50;;;;;;;17.28;86.49;96869.91;5042975;28;20031;-72
2023/09/22 01:52:34;;;;;;;2.40;1.27;;;;;;;17.16;86.44;96877.91;5033171;28;20116;-69
2023/09/22 01:54:59;;;;;;;1.40;1.30;;;;;;;17.16;86.81;96883.34;5049109;28;20492;-70
2023/09/22 01:57:24;;;;;;;2.75;1.50;;;;;;;17.07;86.75;96860.75;5032467;28;20112;-70
2023/09/22 01:59:50;;;;;;;2.30;1.40;;;;;;;17.14;86.83;96870.06;5022909;28;20021;-70
2023/09/22 02:02:16;;;;;;;2.22;1.23;;;;;;;17.13;86.75;96867.63;5027965;28;20043;-70
2023/09/22 02:04:41;;;;;;;1.60;1.20;;;;;;;17.14;86.84;96872.78;5045974;28;20029;-70
2023/09/22 02:07:07;;;;;;;2.00;1.38;;;;;;;17.14;86.63;96853.75;5049085;28;20095;-70
2023/09/22 02:09:33;;;;;;;2.47;1.63;;;;;;;17.01;86.90;96843.00;5033020;28;20070;-69
2023/09/22 02:11:59;;;;;;;3.80;1.50;;;;;;;17.23;86.65;96834.69;5031122;28;20041;-70
2023/09/22 02:14:24;;;;;;;3.45;1.40;;;;;;;17.23;86.58;96823.81;5012752;28;20034;-70
2023/09/22 02:16:50;;;;;;;4.70;1.30;;;;;;;17.24;86.36;96841.75;5042807;28;20132;-71
2023/09/22 02:19:15;;;;;;;2.80;1.60;;;;;;;17.04;86.71;96820.59;5041144;28;20025;-72
2023/09/22 02:21:41;;;;;;;1.80;1.40;;;;;;;17.05;86.90;96860.28;5046248;28;20497;-70
2023/09/22 02:24:06;;;;;;;1.30;1.20;;;;;;;17.03;86.83;96884.28;5045758;28;20538;-69
2023/09/22 02:26:32;;;;;;;5.05;1.52;;;;;;;16.99;86.72;96894.22;5047568;28;20040;-69
2023/09/22 02:28:57;;;;;;;1.98;1.35;;;;;;;16.83;87.38;96884.88;5042106;28;20028;-72
2023/09/22 02:31:23;;;;;;;6.82;1.63;;;;;;;16.85;87.49;96885.38;5035849;28;20503;-71
2023/09/22 02:33:49;;;;;;;1.65;1.50;;;;;;;16.89;87.30;96891.78;5045466;28;20028;-69
2023/09/22 02:36:16;;;;;;;2.40;1.63;;;;;;;16.93;87.34;96890.84;5048233;28;20045;-69
2023/09/22 02:38:42;;;;;;;3.83;1.70;;;;;;;17.03;87.04;96911.50;5049239;28;20056;-70
2023/09/22 02:41:08;;;;;;;3.03;1.73;;;;;;;16.95;87.17;96899.47;5049130;28;20136;-72
2023/09/22 02:43:35;;;;;;;6.45;1.67;;;;;;;16.79;87.48;96895.59;5040096;28;20556;-71
2023/09/22 02:46:03;;;;;;;2.25;1.90;;;;;;;16.91;87.65;96914.03;5033015;28;20128;-70
2023/09/22 02:48:29;;;;;;;2.38;1.60;;;;;;;16.81;87.63;96914.31;5045014;28;20384;-69
2023/09/22 02:50:54;;;;;;;1.83;1.58;;;;;;;16.79;87.90;96916.53;5052830;28;20123;-71
2023/09/22 02:53:20;;;;;;;5.47;1.80;;;;;;;16.73;88.11;96912.38;5040193;28;20028;-70
2023/09/22 02:55:46;;;;;;;3.28;1.70;;;;;;;16.76;87.95;96914.44;5048544;28;20034;-70
2023/09/22 02:58:12;;;;;;;2.10;1.73;;;;;;;16.79;87.78;96913.81;5028729;28;20032;-70
2023/09/22 03:00:43;;;;;;;3.72;1.80;;;;;;;16.88;87.30;96903.75;5049301;28;20041;-71
2023/09/22 03:03:10;;;;;;;2.72;1.83;;;;;;;16.90;87.49;96898.81;5041718;28;20481;-72
2023/09/22 03:05:36;;;;;;;4.00;1.70;;;;;;;16.97;87.06;96896.41;5035957;28;20021;-69
2023/09/22 03:08:04;;;;;;;2.33;1.75;;;;;;;17.01;86.87;96897.41;5012827;28;20117;-69
2023/09/22 03:10:30;;;;;;;3.90;1.98;;;;;;;16.95;87.14;96899.47;5016270;28;20018;-69
2023/09/22 03:12:58;;;;;;;2.00;1.40;;;;;;;16.81;87.31;96897.97;5027284;28;20056;-70
2023/09/22 03:15:24;;;;;;;4.15;2.08;;;;;;;16.84;87.18;96909.03;5032416;28;20052;-70
2023/09/22 03:17:50;;;;;;;2.65;1.90;;;;;;;16.77;87.17;96880.72;5046177;28;20071;-69
2023/09/22 03:20:17;;;;;;;3.38;1.70;;;;;;;16.83;87.00;96890.31;5032318;28;20108;-69
2023/09/22 03:22:44;;;;;;;5.03;2.15;;;;;;;16.88;86.89;96909.19;5062158;28;20108;-68
2023/09/22 03:25:10;;;;;;;2.88;1.95;;;;;;;16.79;87.00;96911.91;5028259;28;20061;-68
2023/09/22 03:27:38;;;;;;;3.92;2.00;;;;;;;16.80;87.09;96929.03;5027163;28;20040;-70
2023/09/22 03:30:06;;;;;;;4.03;1.90;;;;;;;16.66;87.08;96895.72;5032376;28;20056;-68
2023/09/22 03:32:32;;;;;;;1.75;1.65;;;;;;;16.86;86.78;96922.31;5045574;28;20039;-69
2023/09/22 03:34:58;;;;;;;2.72;1.90;;;;;;;16.72;86.76;96913.47;5019810;28;20121;-69
2023/09/22 03:37:28;;;;;;;2.72;1.80;;;;;;;16.75;86.74;96918.28;5028016;28;20064;-68
2023/09/22 03:39:57;;;;;;;3.55;2.20;;;;;;;16.80;86.91;96939.91;5032093;28;20026;-69
2023/09/22 03:42:23;;;;;;;2.63;1.90;;;;;;;16.64;86.83;96893.28;5034257;28;20022;-69
2023/09/22 03:44:48;;;;;;;3.17;2.20;;;;;;;16.83;86.58;96899.28;5051906;28;20056;-69
2023/09/22 03:47:14;;;;;;;3.25;2.10;;;;;;;16.83;86.46;96895.75;5035194;28;20064;-69
2023/09/22 03:49:39;;;;;;;5.50;2.28;;;;;;;16.77;86.48;96891.59;5051688;28;20041;-70
2023/09/22 03:52:05;;;;;;;3.30;2.10;;;;;;;16.74;86.56;96890.28;5049871;28;20156;-71
2023/09/22 03:54:30;;;;;;;2.88;1.88;;;;;;;16.84;86.55;96862.00;5051260;28;20044;-69
2023/09/22 03:56:56;;;;;;;3.17;2.10;;;;;;;16.78;86.46;96855.13;5048532;28;20029;-67
2023/09/22 03:59:22;;;;;;;2.72;2.22;;;;;;;16.75;86.27;96894.63;5051536;28;20036;-70
2023/09/22 04:01:47;;;;;;;2.88;2.40;;;;;;;16.59;86.59;96891.53;5052729;28;20191;-69
2023/09/22 04:04:13;;;;;;;3.25;2.60;;;;;;;16.66;86.31;96922.91;5047867;28;20654;-70
2023/09/22 04:06:38;;;;;;;3.78;2.33;;;;;;;16.62;86.15;96911.06;5015672;28;20108;-70
2023/09/22 04:09:04;;;;;;;3.28;2.50;;;;;;;16.70;86.20;96896.69;5048091;28;20043;-71
2023/09/22 04:11:29;;;;;;;3.90;2.38;;;;;;;16.70;86.21;96896.69;5009301;28;20057;-72
2023/09/22 04:13:55;;;;;;;2.67;2.20;;;;;;;16.78;86.34;96899.41;5050954;28;20047;-70
2023/09/22 04:16:20;;;;;;;4.55;2.60;;;;;;;16.84;86.35;96916.41;5021093;28;20044;-70
2023/09/22 04:18:46;;;;;;;3.85;2.10;;;;;;;16.68;86.30;96916.03;5047921;28;20040;-70
2023/09/22 04:21:12;;;;;;;2.88;2.60;;;;;;;16.69;86.22;96916.81;5025553;28;20025;-70
2023/09/22 04:23:45;;;;;;;2.85;2.10;;;;;;;16.63;86.22;96912.66;5043848;28;20048;-69
2023/09/22 04:26:10;;;;;;;2.67;2.40;;;;;;;16.71;85.92;96933.63;5047181;28;20041;-70
2023/09/22 04:28:36;;;;;;;2.95;1.98;;;;;;;16.65;86.16;96924.00;5049250;28;20031;-71
2023/09/22 04:31:02;;;;;;;3.97;2.40;;;;;;;16.58;86.40;96910.88;5057325;28;20060;-70
2023/09/22 04:33:28;;;;;;;7.07;2.80;;;;;;;16.67;86.12;96919.06;5051850;28;20522;-72
2023/09/22 04:35:53;;;;;;;3.63;2.33;;;;;;;16.70;85.96;96910.28;5033396;28;20044;-72
2023/09/22 04:38:19;;;;;;;4.35;2.95;;;;;;;16.70;86.08;96921.97;5047335;28;20396;-71
2023/09/22 04:40:45;;;;;;;3.75;2.70;;;;;;;16.69;86.02;96924.97;5030562;28;20615;-71
2023/09/22 04:43:13;;;;;;;4.50;2.40;;;;;;;16.62;86.27;96925.44;5030496;28;20033;-71
2023/09/22 04:45:40;;;;;;;5.13;2.83;;;;;;;16.69;86.13;96941.28;5030948;28;20451;-70
2023/09/22 04:48:09;;;;;;;4.45;2.72;;;;;;;16.73;85.92;96959.41;5039734;28;20025;-69
2023/09/22 04:50:35;;;;;;;3.20;2.58;;;;;;;16.57;86.31;96931.00;5030504;28;20038;-70
2023/09/22 04:53:00;;;;;;;3.65;2.80;;;;;;;16.73;86.37;96939.56;5039718;28;20027;-72
2023/09/22 04:55:29;;;;;;;3.40;3.10;;;;;;;16.80;86.00;96939.91;5049331;28;20595;-70
2023/09/22 04:57:55;;;;;;;6.95;3.15;;;;;;;16.70;86.18;96940.19;5041267;28;20512;-73
2023/09/22 05:00:24;;;;;;;4.35;3.15;;;;;;;16.69;86.53;96982.06;5049933;28;20160;-70
2023/09/22 05:02:52;;;;;;;3.78;3.05;;;;;;;16.64;86.69;96984.94;5050168;28;20388;-71
2023/09/22 05:05:18;;;;;;;5.88;2.80;;;;;;;16.56;86.79;96986.50;5030542;28;20048;-71
2023/09/22 05:07:45;;;;;;;4.55;3.00;;;;;;;16.62;86.40;96987.94;5040626;28;20040;-71
2023/09/22 05:10:11;;;;;;;3.53;2.70;;;;;;;16.60;86.60;96990.19;5036729;28;20044;-71
2023/09/22 05:12:36;;;;;;;3.47;2.80;;;;;;;16.44;86.73;96987.03;5046947;28;20025;-71
2023/09/22 05:15:02;;;;;;;4.05;2.92;;;;;;;16.36;86.89;97001.38;5047916;28;20035;-71
2023/09/22 05:17:28;;;;;;;2.88;2.63;;;;;;;16.51;86.97;97003.75;5041461;28;20029;-71
2023/09/22 05:19:53;;;;;;;5.20;3.03;;;;;;;16.52;86.92;97012.69;5034832;28;20559;-71
2023/09/22 05:22:20;;;;;;;3.08;2.65;;;;;;;16.46;87.18;97008.47;5040242;28;20381;-72
2023/09/22 05:24:46;;;;;;;5.93;3.20;;;;;;;16.36;87.60;97017.66;5045644;28;20029;-72
2023/09/22 05:27:11;;;;;;;5.45;3.03;;;;;;;16.33;87.58;97015.59;5050006;28;20443;-73
2023/09/22 05:29:37;;;;;;;3.55;2.58;;;;;;;16.23;87.81;97015.03;5049568;28;20463;-74
2023/09/22 05:32:03;;;;;;;3.67;3.08;;;;;;;16.28;87.87;97032.03;5051204;28;20032;-74
2023/09/22 05:34:28;;;;;;;4.00;2.80;;;;;;;16.25;88.02;97035.34;5050709;28;20037;-73
2023/09/22 05:36:54;;;;;;;3.10;2.47;;;;;;;16.29;88.01;97028.16;5049191;28;20021;-73
2023/09/22 05:39:19;;;;;;;6.25;3.35;;;;;;;16.28;88.31;97036.66;5049368;28;20037;-72
2023/09/22 05:41:48;;;;;;;3.42;3.13;;;;;;;16.38;87.72;97020.88;5050995;28;20028;-73
2023/09/22 05:44:13;;;;;;;5.53;2.70;;;;;;;16.33;87.50;97002.00;5045400;28;20112;-72
2023/09/22 05:46:39;;;;;;;4.47;2.40;;;;;;;16.39;87.44;96992.59;5048499;28;20600;-73
2023/09/22 05:49:05;;;;;;;4.28;2.75;;;;;;;16.44;87.27;96959.88;5046080;28;20037;-74
2023/09/22 05:51:32;;;;;;;6.45;2.60;;;;;;;16.54;87.00;96981.38;5039984;28;20029;-74
2023/09/22 05:53:57;;;;;;;4.13;2.60;;;;;;;16.35;86.91;96969.88;5044256;28;20060;-74
2023/09/22 05:56:22;;;;;;;3.28;2.50;;;;;;;16.35;86.82;96988.91;5047251;28;20060;-73
2023/09/22 05:58:48;;;;;;;4.30;2.67;;;;;;;16.29;87.22;97006.44;5044882;28;20022;-73
2023/09/22 06:01:14;;;;;;;5.88;2.90;;;;;;;16.38;86.99;97004.56;5046023;28;20537;-72
2023/09/22 06:03:41;;;;;;;4.72;2.78;;;;;;;16.26;86.96;96996.22;5045623;28;20533;-74
2023/09/22 06:06:14;;;;;;;3.75;2.72;;;;;;;16.32;86.60;96994.97;5019596;28;20113;-73
2023/09/22 06:08:45;;;;;;;3.40;2.97;;;;;;;16.39;87.25;97008.09;5046927;28;20037;-72
2023/09/22 06:11:11;;;;;;;6.40;2.67;;;;;;;16.49;86.63;97003.22;5046512;28;20092;-73
2023/09/22 06:13:37;;;;;;;3.08;2.78;;;;;;;16.56;86.68;97000.91;5042777;28;20021;-73
2023/09/22 06:16:04;;;;;;;5.03;3.20;;;;;;;16.58;86.63;97016.88;5043844;28;20034;-74
2023/09/22 06:18:30;;;;;;;5.47;3.22;;;;;;;16.54;86.69;97024.88;5029482;28;20116;-74
2023/09/22 06:20:56;;;;;;;4.63;2.85;;;;;;;16.49;86.78;97026.88;5049869;28;20533;-74
2023/09/22 06:23:23;;;;;;;4.18;2.45;;;;;;;16.57;86.21;97016.06;5047974;28;20425;-70
2023/09/22 06:25:53;;;;;;;3.72;2.30;;;;;;;16.63;86.78;97021.38;5047614;28;20047;-72
2023/09/22 06:28:19;;;;;;;3.70;3.03;;;;;;;16.47;86.89;97015.53;5045608;28;20437;-73
2023/09/22 06:30:46;;;;;;;4.05;3.08;;;;;;;16.54;86.45;97024.88;5045654;28;20100;-72
2023/09/22 06:33:16;;;;;;;6.78;2.97;;;;;;;16.36;86.87;97044.84;5053040;28;20037;-72
2023/09/22 06:35:44;;;;;;;4.55;2.92;;;;;;;16.35;87.19;97081.31;5049823;28;20025;-73
2023/09/22 06:38:16;;;;;;;5.45;3.08;;;;;;;16.34;87.13;97090.56;5049846;28;20041;-72
2023/09/22 06:40:44;;;;;;;2.70;2.50;;;;;;;16.24;87.45;97074.47;5049767;28;20029;-73
2023/09/22 06:43:10;;;;;;;3.75;2.33;;;;;;;16.25;87.87;97076.09;5053984;28;20021;-73
2023/09/22 06:45:38;;;;;;;3.38;2.80;;;;;;;16.31;87.77;97102.03;5051196;28;20033;-73
2023/09/22 06:48:07;;;;;;;3.47;2.95;;;;;;;16.18;87.34;97086.59;5036591;28;20029;-73
2023/09/22 06:50:37;;;;;;;3.28;2.38;;;;;;;16.24;87.97;97101.66;5050977;28;20057;-72
2023/09/22 06:53:03;;;;;;;4.10;2.72;;;;;;;16.33;87.60;97105.25;5048186;28;20489;-71
2023/09/22 06:55:30;;;;;;;4.30;2.40;;;;;;;16.29;87.49;97108.91;5051707;28;20025;-71
2023/09/22 06:57:57;;;;;;;4.70;3.35;;;;;;;16.28;87.63;97113.53;5049294;28;20029;-71
2023/09/22 07:00:24;;;;;;;4.30;2.53;;;;;;;16.17;88.03;97095.06;5064852;28;20028;-73
2023/09/22 07:02:49;;;;;;;4.10;2.60;;;;;;;16.16;87.79;97094.25;5047806;28;20235;-69
2023/09/22 07:05:19;;;;;;;3.83;2.60;;;;;;;16.33;87.39;97110.69;5042610;28;20108;-73
2023/09/22 07:07:45;;;;;;;3.72;2.63;;;;;;;16.27;87.43;97095.59;5047844;28;20025;-73
2023/09/22 07:10:10;;;;;;;3.63;2.42;;;;;;;16.37;87.18;97100.81;5036296;28;20391;-73
2023/09/22 07:12:36;;;;;;;3.33;2.35;;;;;;;16.44;87.20;97112.06;5049066;28;20095;-72
2023/09/22 07:15:02;;;;;;;4.88;4.38;;;;;;;16.22;87.49;97122.09;5044946;28;20029;-72
2023/09/22 07:17:28;;;;;;;12.65;8.50;;;;;;;16.19;87.45;97126.25;5038988;28;20670;-73
2023/09/22 07:19:53;;;;;;;91.70;65.53;;;;;;;16.30;87.40;97152.06;5049840;28;20376;-71
2023/09/22 07:22:19;;;;;;;46.92;33.42;;;;;;;16.28;87.36;97140.69;5053212;28;20120;-72
2023/09/22 07:24:44;;;;;;;19.67;14.75;;;;;;;16.26;86.80;97137.50;5051187;28;20024;-73
2023/09/22 07:27:09;;;;;;;61.65;43.95;;;;;;;16.27;87.41;97144.50;5048526;28;20030;-72
2023/09/22 07:29:35;;;;;;;34.13;21.70;;;;;;;16.36;87.09;97158.97;5049223;28;20025;-73
2023/09/22 07:32:01;;;;;;;22.85;16.42;;;;;;;16.42;87.09;97163.19;5050181;28;20044;-72
2023/09/22 07:34:27;;;;;;;25.80;18.60;;;;;;;16.40;87.10;97175.50;5034026;28;20508;-73
2023/09/22 07:36:53;;;;;;;17.15;11.20;;;;;;;16.42;87.02;97182.22;5048501;28;20045;-72
2023/09/22 07:39:19;;;;;;;10.18;6.85;;;;;;;16.34;86.81;97174.78;5049508;28;20100;-72
2023/09/22 07:41:45;;;;;;;4.45;3.60;;;;;;;16.37;86.99;97165.22;5048867;28;20029;-72
2023/09/22 07:44:10;;;;;;;5.28;3.83;;;;;;;16.50;86.61;97192.34;5049508;28;20029;-73
2023/09/22 07:46:36;;;;;;;5.57;4.30;;;;;;;16.52;86.16;97189.38;5047414;28;20029;-71
2023/09/22 07:49:01;;;;;;;4.32;3.13;;;;;;;16.54;86.45;97190.69;5021647;28;20029;-73
2023/09/22 07:51:27;;;;;;;7.72;6.05;;;;;;;16.61;86.20;97197.59;5053120;28;20043;-72
2023/09/22 07:53:52;;;;;;;6.35;4.15;;;;;;;16.62;85.99;97200.00;5032322;28;20484;-73
2023/09/22 07:56:18;;;;;;;6.45;4.68;;;;;;;16.59;86.10;97179.66;5052620;28;20686;-73
2023/09/22 07:58:44;;;;;;;5.20;3.53;;;;;;;16.77;85.98;97194.22;5041397;28;20033;-73
2023/09/22 08:01:15;;;;;;;13.55;8.75;;;;;;;16.77;85.64;97174.38;5046688;28;20041;-73
2023/09/22 08:03:40;;;;;;;10.23;5.85;;;;;;;16.87;85.73;97182.28;5022644;28;20500;-71
2023/09/22 08:06:07;;;;;;;5.18;3.50;;;;;;;16.84;85.52;97169.31;5041718;28;20021;-73
2023/09/22 08:08:33;;;;;;;6.70;3.95;;;;;;;16.91;85.32;97166.97;5047459;28;20497;-71
2023/09/22 08:10:59;;;;;;;5.38;3.05;;;;;;;17.04;85.43;97182.38;5022214;28;20039;-72
2023/09/22 08:13:25;;;;;;;8.05;5.05;;;;;;;16.99;85.15;97166.22;5043344;28;20083;-73
2023/09/22 08:15:51;;;;;;;8.27;3.53;;;;;;;17.18;85.05;97175.75;5052033;28;20029;-72
2023/09/22 08:18:16;;;;;;;6.88;3.85;;;;;;;17.14;85.09;97163.91;5044093;28;20123;-70
2023/09/22 08:20:42;;;;;;;6.32;3.15;;;;;;;17.27;84.81;97186.69;5040243;28;20021;-71
2023/09/22 08:23:07;;;;;;;12.43;6.22;;;;;;;17.03;85.02;97167.19;5047858;28;20041;-71
2023/09/22 08:25:34;;;;;;;19.67;8.68;;;;;;;17.13;85.01;97177.81;5047794;28;20029;-72
2023/09/22 08:28:00;;;;;;;4.72;3.25;;;;;;;17.20;85.39;97186.31;5048408;28;20045;-71
2023/09/22 08:30:26;;;;;;;5.40;3.25;;;;;;;17.16;85.55;97171.75;5047391;28;20029;-71
2023/09/22 08:32:51;;;;;;;4.43;2.60;;;;;;;17.21;85.52;97158.00;5043711;28;20041;-71
2023/09/22 08:35:17;;;;;;;2.90;2.58;;;;;;;17.18;85.48;97136.88;5042602;28;20025;-71
2023/09/22 08:37:43;;;;;;;12.68;5.85;;;;;;;17.17;85.38;97162.47;5047200;28;20654;-71
2023/09/22 08:40:16;;;;;;;5.78;3.60;;;;;;;17.12;85.37;97154.44;5031007;28;20060;-71
2023/09/22 08:42:44;;;;;;;6.93;3.38;;;;;;;17.06;85.81;97140.16;5028565;28;20037;-71
2023/09/22 08:45:10;;;;;;;5.22;3.00;;;;;;;17.24;85.33;97150.03;5030132;28;20025;-72
2023/09/22 08:47:39;;;;;;;8.63;3.10;;;;;;;17.31;85.28;97152.31;5044093;28;20037;-72
2023/09/22 08:50:19;;;;;;;8.95;5.65;;;;;;;17.32;85.14;97148.47;5042072;28;20029;-71
2023/09/22 08:52:49;;;;;;;5.47;3.25;;;;;;;17.28;85.33;97148.28;5045975;28;20048;-72
2023/09/22 08:55:14;;;;;;;10.60;6.68;;;;;;;17.16;85.48;97136.38;5036467;28;20069;-71
2023/09/22 08:57:44;;;;;;;8.50;5.63;;;;;;;17.27;85.60;97156.75;5046857;28;20108;-72
2023/09/22 09:00:18;;;;;;;11.75;7.78;;;;;;;17.26;85.38;97155.16;5036064;28;20513;-73
2023/09/22 09:02:43;;;;;;;4.93;3.47;;;;;;;17.22;85.86;97154.19;5035029;28;20041;-72
2023/09/22 09:05:20;;;;;;;4.38;3.65;;;;;;;17.23;85.54;97155.78;5048475;28;20033;-72
2023/09/22 09:07:46;;;;;;;7.63;3.35;;;;;;;17.14;85.88;97133.16;5046968;28;20116;-74
2023/09/22 09:10:24;;;;;;;5.53;3.42;;;;;;;17.10;85.89;97134.91;5038892;28;20028;-72
2023/09/22 09:12:49;;;;;;;5.10;3.38;;;;;;;17.14;85.54;97136.69;5030344;28;20040;-72
2023/09/22 09:15:15;;;;;;;5.90;2.67;;;;;;;17.25;85.39;97137.22;5018110;28;20036;-71
2023/09/22 09:17:40;;;;;;;4.38;2.90;;;;;;;17.28;85.26;97137.41;5040205;28;20099;-72
2023/09/22 09:20:07;;;;;;;3.20;2.90;;;;;;;17.26;84.84;97127.94;5044118;28;20056;-71
2023/09/22 09:22:36;;;;;;;4.78;3.13;;;;;;;17.35;84.58;97147.84;5042524;28;20124;-71
2023/09/22 09:25:02;;;;;;;3.50;3.20;;;;;;;17.33;84.97;97152.81;5044716;28;20472;-72
2023/09/22 09:27:28;;;;;;;5.00;2.88;;;;;;;17.28;84.69;97147.47;5041752;28;20029;-72
2023/09/22 09:29:54;;;;;;;3.80;2.50;;;;;;;17.29;84.73;97151.81;5046449;28;20362;-72
2023/09/22 09:32:24;;;;;;;4.43;2.67;;;;;;;17.33;84.36;97147.34;5041313;28;20017;-75
2023/09/22 09:34:50;;;;;;;6.28;2.78;;;;;;;17.40;84.67;97183.09;5046280;28;20436;-71
2023/09/22 09:37:16;;;;;;;4.18;2.70;;;;;;;17.34;84.79;97178.88;5041968;28;20029;-71
2023/09/22 09:39:47;;;;;;;3.58;2.55;;;;;;;17.25;84.49;97169.88;5044334;28;20025;-72
2023/09/22 09:42:17;;;;;;;6.78;2.67;;;;;;;17.38;84.20;97189.97;5042590;28;20496;-72
2023/09/22 09:44:49;;;;;;;5.07;2.80;;;;;;;17.36;84.42;97198.44;5046298;28;20044;-72
2023/09/22 09:47:23;;;;;;;4.28;2.40;;;;;;;17.28;84.27;97185.59;5031440;28;20112;-73
2023/09/22 09:49:52;;;;;;;4.25;2.50;;;;;;;17.32;84.37;97200.16;5029951;28;20045;-71
2023/09/22 09:52:22;;;;;;;3.90;2.33;;;;;;;17.39;83.98;97197.81;5046488;28;20074;-71
2023/09/22 09:54:52;;;;;;;2.63;2.05;;;;;;;17.39;83.61;97197.81;5043780;28;20115;-72
2023/09/22 09:57:19;;;;;;;3.35;2.17;;;;;;;17.43;83.41;97187.91;5036263;28;20025;-71
2023/09/22 09:59:44;;;;;;;4.60;2.25;;;;;;;17.53;83.27;97184.94;5038427;28;20025;-71
2023/09/22 10:02:11;;;;;;;4.20;2.60;;;;;;;17.50;82.96;97171.13;5047965;28;20029;-71
2023/09/22 10:04:39;;;;;;;3.88;2.20;;;;;;;17.50;82.46;97166.50;5052217;28;20019;-72
2023/09/22 10:07:05;;;;;;;2.47;2.20;;;;;;;17.58;82.49;97176.63;5048534;28;20033;-72
2023/09/22 10:09:31;;;;;;;3.63;2.28;;;;;;;17.60;82.00;97171.69;5037602;28;20034;-72
2023/09/22 10:11:56;;;;;;;2.05;1.85;;;;;;;17.48;82.12;97157.81;5042889;28;20041;-72
2023/09/22 10:14:51;;;;;;;7.20;5.05;;;;;;;17.50;81.79;97173.84;5040502;28;20024;-71
2023/09/22 10:17:21;;;;;;;2.83;2.00;;;;;;;17.44;82.03;97173.19;5046189;28;20079;-71
2023/09/22 10:19:47;;;;;;;3.35;2.67;;;;;;;17.31;82.23;97159.66;5044065;28;20033;-73
2023/09/22 10:22:13;;;;;;;2.75;1.95;;;;;;;16.92;82.57;97146.81;5035332;28;20027;-71
2023/09/22 10:24:38;;;;;;;2.10;1.90;;;;;;;17.04;82.73;97179.66;5044370;28;20076;-71
2023/09/22 10:27:08;;;;;;;3.72;2.10;;;;;;;17.10;82.82;97200.22;5041392;28;20071;-72
2023/09/22 10:29:34;;;;;;;3.15;2.10;;;;;;;17.01;83.14;97191.19;5030536;28;20038;-72
2023/09/22 10:32:27;;;;;;;5.00;2.25;;;;;;;17.05;83.22;97203.06;5040156;28;20440;-73
2023/09/22 10:34:56;;;;;;;4.88;2.55;;;;;;;17.12;83.12;97192.53;5029059;28;20073;-71
2023/09/22 10:37:27;;;;;;;6.55;2.67;;;;;;;17.10;83.48;97192.84;5029689;28;20554;-72
2023/09/22 10:40:09;;;;;;;4.95;2.38;;;;;;;17.14;83.39;97184.88;5049276;28;20037;-71
2023/09/22 10:42:52;;;;;;;2.47;2.20;;;;;;;17.05;83.28;97182.09;5032675;28;20452;-72
2023/09/22 10:45:25;;;;;;;2.45;2.08;;;;;;;17.26;83.39;97199.53;5043038;28;20043;-71
2023/09/22 10:47:52;;;;;;;4.70;2.20;;;;;;;17.37;82.92;97202.75;5042736;28;20045;-71
2023/09/22 10:50:30;;;;;;;2.92;2.17;;;;;;;17.38;82.72;97209.00;5029138;28;20072;-71
2023/09/22 10:52:57;;;;;;;5.28;2.15;;;;;;;17.26;83.32;97225.91;5045219;28;20038;-71
2023/09/22 10:55:27;;;;;;;5.05;2.40;;;;;;;17.19;83.70;97220.13;5045414;28;20021;-71
2023/09/22 10:57:55;;;;;;;4.47;2.67;;;;;;;17.21;83.57;97201.56;5045849;28;20048;-71
2023/09/22 11:00:22;;;;;;;2.47;2.28;;;;;;;17.22;83.71;97197.72;5027880;28;20483;-71
2023/09/22 11:02:48;;;;;;;3.47;2.92;;;;;;;17.21;83.51;97187.94;5045707;28;20069;-72
2023/09/22 11:05:16;;;;;;;5.25;2.70;;;;;;;17.34;83.47;97202.59;5046087;28;20117;-71
2023/09/22 11:07:42;;;;;;;3.42;2.63;;;;;;;17.21;84.09;97186.03;5043601;28;20033;-71
2023/09/22 11:10:10;;;;;;;7.35;4.38;;;;;;;17.42;84.22;97196.38;5035906;28;20441;-73
2023/09/22 11:12:35;;;;;;;4.47;3.30;;;;;;;17.57;83.71;97194.09;5053333;28;20043;-71
2023/09/22 11:15:02;;;;;;;4.18;3.13;;;;;;;17.59;83.37;97189.16;5051908;28;20030;-71
2023/09/22 11:17:47;;;;;;;4.07;3.30;;;;;;;17.59;82.82;97185.63;5049267;28;20430;-72
2023/09/22 11:20:22;;;;;;;4.82;3.38;;;;;;;17.66;82.82;97192.22;5032470;28;20029;-72
2023/09/22 11:22:49;;;;;;;4.75;3.47;;;;;;;17.66;82.66;97200.41;5045884;28;20542;-72
2023/09/22 11:25:14;;;;;;;6.50;3.65;;;;;;;17.75;82.66;97212.13;5026760;28;20116;-73
2023/09/22 11:27:44;;;;;;;5.38;3.58;;;;;;;17.81;82.40;97205.41;5037817;28;20112;-70
2023/09/22 11:30:14;;;;;;;3.63;3.03;;;;;;;17.75;82.68;97212.13;5033372;28;20084;-71